sensor_id;sensor_type;location;lat;lon;timestamp;P1;durP1;ratioP1;P2;durP2;ratioP2
39792;SDS011;26080;42.264;24.536;2024-01-16T00:01:37;13.65;;;5.70;;
39792;SDS011;26080;42.264;24.536;2024-01-16T00:04:02;7.78;;;3.90;;
39792;SDS011;26080;42.264;24.536;2024-01-16T00:06:28;13.77;;;5.95;;
39792;SDS011;26080;42.264;24.536;2024-01-16T00:08:53;11.38;;;4.00;;
39792;SDS011;26080;42.264;24.536;2024-01-16T00:11:19;9.35;;;4.75;;
39792;SDS011;26080;42.264;24.536;2024-01-16T00:13:44;6.72;;;4.43;;
39792;SDS011;26080;42.264;24.536;2024-01-16T00:16:09;12.57;;;6.25;;
39792;SDS011;26080;42.264;24.536;2024-01-16T00:18:35;14.75;;;5.95;;
39792;SDS011;26080;42.264;24.536;2024-01-16T00:21:01;14.75;;;6.18;;
39792;SDS011;26080;42.264;24.536;2024-01-16T00:23:28;11.52;;;5.45;;
39792;SDS011;26080;42.264;24.536;2024-01-16T00:25:53;8.05;;;4.00;;
39792;SDS011;26080;42.264;24.536;2024-01-16T00:28:18;13.98;;;4.18;;
39792;SDS011;26080;42.264;24.536;2024-01-16T00:30:44;6.10;;;3.85;;
39792;SDS011;26080;42.264;24.536;2024-01-16T00:33:10;6.63;;;3.83;;
39792;SDS011;26080;42.264;24.536;2024-01-16T00:35:37;20.13;;;5.18;;
39792;SDS011;26080;42.264;24.536;2024-01-16T00:38:02;5.50;;;4.35;;
39792;SDS011;26080;42.264;24.536;2024-01-16T00:40:28;9.05;;;4.40;;
39792;SDS011;26080;42.264;24.536;2024-01-16T00:42:53;9.60;;;3.63;;
39792;SDS011;26080;42.264;24.536;2024-01-16T00:45:19;11.70;;;5.25;;
39792;SDS011;26080;42.264;24.536;2024-01-16T00:47:44;4.00;;;2.78;;
39792;SDS011;26080;42.264;24.536;2024-01-16T00:50:10;6.75;;;4.68;;
39792;SDS011;26080;42.264;24.536;2024-01-16T00:52:35;10.00;;;6.53;;
39792;SDS011;26080;42.264;24.536;2024-01-16T00:55:01;8.68;;;4.13;;
39792;SDS011;26080;42.264;24.536;2024-01-16T00:57:26;8.20;;;5.30;;
39792;SDS011;26080;42.264;24.536;2024-01-16T00:59:51;12.68;;;4.88;;
39792;SDS011;26080;42.264;24.536;2024-01-16T01:02:17;10.90;;;5.07;;
39792;SDS011;26080;42.264;24.536;2024-01-16T01:04:42;12.50;;;4.57;;
39792;SDS011;26080;42.264;24.536;2024-01-16T01:07:08;10.18;;;4.28;;
39792;SDS011;26080;42.264;24.536;2024-01-16T01:09:33;14.43;;;6.00;;
39792;SDS011;26080;42.264;24.536;2024-01-16T01:11:59;12.75;;;5.15;;
39792;SDS011;26080;42.264;24.536;2024-01-16T01:14:24;10.10;;;5.35;;
39792;SDS011;26080;42.264;24.536;2024-01-16T01:16:51;11.07;;;4.70;;
39792;SDS011;26080;42.264;24.536;2024-01-16T01:19:17;8.48;;;5.15;;
39792;SDS011;26080;42.264;24.536;2024-01-16T01:21:42;8.80;;;6.32;;
39792;SDS011;26080;42.264;24.536;2024-01-16T01:24:09;9.30;;;5.72;;
39792;SDS011;26080;42.264;24.536;2024-01-16T01:26:34;12.90;;;5.95;;
39792;SDS011;26080;42.264;24.536;2024-01-16T01:29:00;14.68;;;5.20;;
39792;SDS011;26080;42.264;24.536;2024-01-16T01:31:26;15.93;;;6.93;;
39792;SDS011;26080;42.264;24.536;2024-01-16T01:33:51;10.55;;;5.13;;
39792;SDS011;26080;42.264;24.536;2024-01-16T01:36:17;13.38;;;4.90;;
39792;SDS011;26080;42.264;24.536;2024-01-16T01:38:42;14.63;;;5.90;;
39792;SDS011;26080;42.264;24.536;2024-01-16T01:41:08;22.85;;;7.72;;
39792;SDS011;26080;42.264;24.536;2024-01-16T01:43:33;13.38;;;6.75;;
39792;SDS011;26080;42.264;24.536;2024-01-16T01:46:17;8.02;;;5.07;;
39792;SDS011;26080;42.264;24.536;2024-01-16T01:48:44;8.77;;;5.20;;
39792;SDS011;26080;42.264;24.536;2024-01-16T01:51:13;10.82;;;5.22;;
39792;SDS011;26080;42.264;24.536;2024-01-16T01:53:40;7.15;;;4.80;;
39792;SDS011;26080;42.264;24.536;2024-01-16T01:56:08;7.20;;;5.70;;
39792;SDS011;26080;42.264;24.536;2024-01-16T01:58:35;14.80;;;5.25;;
39792;SDS011;26080;42.264;24.536;2024-01-16T02:01:03;11.23;;;5.95;;
39792;SDS011;26080;42.264;24.536;2024-01-16T02:03:30;8.60;;;4.68;;
39792;SDS011;26080;42.264;24.536;2024-01-16T02:06:00;10.32;;;4.28;;
39792;SDS011;26080;42.264;24.536;2024-01-16T02:08:25;7.38;;;4.18;;
39792;SDS011;26080;42.264;24.536;2024-01-16T02:10:51;21.55;;;7.05;;
39792;SDS011;26080;42.264;24.536;2024-01-16T02:13:18;17.17;;;5.53;;
39792;SDS011;26080;42.264;24.536;2024-01-16T02:15:48;11.48;;;5.40;;
39792;SDS011;26080;42.264;24.536;2024-01-16T02:18:14;10.70;;;4.47;;
39792;SDS011;26080;42.264;24.536;2024-01-16T02:20:39;7.53;;;3.60;;
39792;SDS011;26080;42.264;24.536;2024-01-16T02:23:04;12.50;;;5.40;;
39792;SDS011;26080;42.264;24.536;2024-01-16T02:25:31;10.20;;;3.60;;
39792;SDS011;26080;42.264;24.536;2024-01-16T02:27:57;6.50;;;3.80;;
39792;SDS011;26080;42.264;24.536;2024-01-16T02:30:22;9.85;;;3.95;;
39792;SDS011;26080;42.264;24.536;2024-01-16T02:32:48;7.32;;;4.22;;
39792;SDS011;26080;42.264;24.536;2024-01-16T02:35:13;13.88;;;4.13;;
39792;SDS011;26080;42.264;24.536;2024-01-16T02:37:40;10.23;;;3.03;;
39792;SDS011;26080;42.264;24.536;2024-01-16T02:40:05;8.88;;;4.00;;
39792;SDS011;26080;42.264;24.536;2024-01-16T02:42:32;7.18;;;3.28;;
39792;SDS011;26080;42.264;24.536;2024-01-16T02:44:57;15.57;;;5.22;;
39792;SDS011;26080;42.264;24.536;2024-01-16T02:47:23;14.18;;;5.55;;
39792;SDS011;26080;42.264;24.536;2024-01-16T02:49:48;8.15;;;4.72;;
39792;SDS011;26080;42.264;24.536;2024-01-16T02:52:14;8.00;;;4.32;;
39792;SDS011;26080;42.264;24.536;2024-01-16T02:54:40;12.35;;;5.57;;
39792;SDS011;26080;42.264;24.536;2024-01-16T02:57:05;15.52;;;6.50;;
39792;SDS011;26080;42.264;24.536;2024-01-16T02:59:30;10.98;;;5.00;;
39792;SDS011;26080;42.264;24.536;2024-01-16T03:01:56;9.13;;;4.50;;
39792;SDS011;26080;42.264;24.536;2024-01-16T03:04:22;7.28;;;4.93;;
39792;SDS011;26080;42.264;24.536;2024-01-16T03:06:47;12.05;;;6.35;;
39792;SDS011;26080;42.264;24.536;2024-01-16T03:09:12;16.48;;;4.07;;
39792;SDS011;26080;42.264;24.536;2024-01-16T03:11:38;9.38;;;4.22;;
39792;SDS011;26080;42.264;24.536;2024-01-16T03:14:04;7.57;;;4.05;;
39792;SDS011;26080;42.264;24.536;2024-01-16T03:16:30;7.47;;;4.45;;
39792;SDS011;26080;42.264;24.536;2024-01-16T03:18:56;7.93;;;5.38;;
39792;SDS011;26080;42.264;24.536;2024-01-16T03:21:22;12.20;;;5.15;;
39792;SDS011;26080;42.264;24.536;2024-01-16T03:23:47;17.20;;;7.43;;
39792;SDS011;26080;42.264;24.536;2024-01-16T03:26:13;10.30;;;4.97;;
39792;SDS011;26080;42.264;24.536;2024-01-16T03:28:39;12.02;;;5.10;;
39792;SDS011;26080;42.264;24.536;2024-01-16T03:31:05;7.15;;;4.03;;
39792;SDS011;26080;42.264;24.536;2024-01-16T03:33:30;13.13;;;5.53;;
39792;SDS011;26080;42.264;24.536;2024-01-16T03:35:56;5.22;;;3.83;;
39792;SDS011;26080;42.264;24.536;2024-01-16T03:38:21;4.75;;;2.50;;
39792;SDS011;26080;42.264;24.536;2024-01-16T03:40:46;3.80;;;2.00;;
39792;SDS011;26080;42.264;24.536;2024-01-16T03:43:12;4.65;;;3.08;;
39792;SDS011;26080;42.264;24.536;2024-01-16T03:45:37;5.22;;;3.00;;
39792;SDS011;26080;42.264;24.536;2024-01-16T03:48:03;4.45;;;2.97;;
39792;SDS011;26080;42.264;24.536;2024-01-16T03:50:29;3.83;;;2.75;;
39792;SDS011;26080;42.264;24.536;2024-01-16T03:52:55;10.40;;;4.63;;
39792;SDS011;26080;42.264;24.536;2024-01-16T03:55:20;7.47;;;4.30;;
39792;SDS011;26080;42.264;24.536;2024-01-16T03:57:46;5.50;;;4.00;;
39792;SDS011;26080;42.264;24.536;2024-01-16T04:00:11;8.75;;;4.43;;
39792;SDS011;26080;42.264;24.536;2024-01-16T04:02:37;4.97;;;3.83;;
39792;SDS011;26080;42.264;24.536;2024-01-16T04:05:04;7.55;;;2.95;;
39792;SDS011;26080;42.264;24.536;2024-01-16T04:07:29;11.88;;;4.13;;
39792;SDS011;26080;42.264;24.536;2024-01-16T04:09:55;10.05;;;5.03;;
39792;SDS011;26080;42.264;24.536;2024-01-16T04:12:20;8.43;;;3.78;;
39792;SDS011;26080;42.264;24.536;2024-01-16T04:14:46;10.13;;;5.28;;
39792;SDS011;26080;42.264;24.536;2024-01-16T04:17:12;6.97;;;4.15;;
39792;SDS011;26080;42.264;24.536;2024-01-16T04:19:37;7.05;;;3.95;;
39792;SDS011;26080;42.264;24.536;2024-01-16T04:22:02;11.13;;;4.72;;
39792;SDS011;26080;42.264;24.536;2024-01-16T04:24:29;8.48;;;3.92;;
39792;SDS011;26080;42.264;24.536;2024-01-16T04:26:55;7.35;;;4.20;;
39792;SDS011;26080;42.264;24.536;2024-01-16T04:29:20;11.65;;;4.18;;
39792;SDS011;26080;42.264;24.536;2024-01-16T04:31:46;11.13;;;5.03;;
39792;SDS011;26080;42.264;24.536;2024-01-16T04:34:11;14.80;;;5.88;;
39792;SDS011;26080;42.264;24.536;2024-01-16T04:36:37;8.27;;;4.40;;
39792;SDS011;26080;42.264;24.536;2024-01-16T04:39:02;12.05;;;5.28;;
39792;SDS011;26080;42.264;24.536;2024-01-16T04:41:31;9.05;;;4.25;;
39792;SDS011;26080;42.264;24.536;2024-01-16T04:43:56;16.63;;;6.13;;
39792;SDS011;26080;42.264;24.536;2024-01-16T04:46:21;23.08;;;8.38;;
39792;SDS011;26080;42.264;24.536;2024-01-16T04:48:47;25.73;;;8.75;;
39792;SDS011;26080;42.264;24.536;2024-01-16T04:51:12;18.02;;;6.65;;
39792;SDS011;26080;42.264;24.536;2024-01-16T04:53:38;10.18;;;5.53;;
39792;SDS011;26080;42.264;24.536;2024-01-16T04:56:04;16.42;;;6.53;;
39792;SDS011;26080;42.264;24.536;2024-01-16T04:58:29;15.50;;;6.25;;
39792;SDS011;26080;42.264;24.536;2024-01-16T05:00:55;12.10;;;5.47;;
39792;SDS011;26080;42.264;24.536;2024-01-16T05:03:20;9.10;;;5.28;;
39792;SDS011;26080;42.264;24.536;2024-01-16T05:05:49;14.95;;;7.30;;
39792;SDS011;26080;42.264;24.536;2024-01-16T05:08:14;19.38;;;7.30;;
39792;SDS011;26080;42.264;24.536;2024-01-16T05:10:40;26.85;;;9.32;;
39792;SDS011;26080;42.264;24.536;2024-01-16T05:13:05;10.52;;;5.90;;
39792;SDS011;26080;42.264;24.536;2024-01-16T05:15:31;14.40;;;6.90;;
39792;SDS011;26080;42.264;24.536;2024-01-16T05:17:56;17.58;;;8.10;;
39792;SDS011;26080;42.264;24.536;2024-01-16T05:20:22;6.53;;;3.97;;
39792;SDS011;26080;42.264;24.536;2024-01-16T05:22:47;7.97;;;3.88;;
39792;SDS011;26080;42.264;24.536;2024-01-16T05:25:13;9.30;;;3.40;;
39792;SDS011;26080;42.264;24.536;2024-01-16T05:27:38;4.90;;;3.47;;
39792;SDS011;26080;42.264;24.536;2024-01-16T05:30:04;6.30;;;4.05;;
39792;SDS011;26080;42.264;24.536;2024-01-16T05:32:30;10.05;;;4.55;;
39792;SDS011;26080;42.264;24.536;2024-01-16T05:34:55;23.77;;;7.55;;
39792;SDS011;26080;42.264;24.536;2024-01-16T05:37:21;6.63;;;3.90;;
39792;SDS011;26080;42.264;24.536;2024-01-16T05:39:46;6.38;;;3.20;;
39792;SDS011;26080;42.264;24.536;2024-01-16T05:42:12;11.77;;;4.47;;
39792;SDS011;26080;42.264;24.536;2024-01-16T05:44:37;13.20;;;7.55;;
39792;SDS011;26080;42.264;24.536;2024-01-16T05:47:03;13.02;;;7.25;;
39792;SDS011;26080;42.264;24.536;2024-01-16T05:49:29;9.85;;;5.50;;
39792;SDS011;26080;42.264;24.536;2024-01-16T05:51:55;6.85;;;3.47;;
39792;SDS011;26080;42.264;24.536;2024-01-16T05:54:20;8.05;;;4.85;;
39792;SDS011;26080;42.264;24.536;2024-01-16T05:56:46;5.35;;;3.67;;
39792;SDS011;26080;42.264;24.536;2024-01-16T05:59:11;6.90;;;2.75;;
39792;SDS011;26080;42.264;24.536;2024-01-16T06:01:37;8.55;;;3.60;;
39792;SDS011;26080;42.264;24.536;2024-01-16T06:04:03;8.57;;;3.30;;
39792;SDS011;26080;42.264;24.536;2024-01-16T06:06:28;6.85;;;4.25;;
39792;SDS011;26080;42.264;24.536;2024-01-16T06:08:54;3.35;;;1.98;;
39792;SDS011;26080;42.264;24.536;2024-01-16T06:11:29;5.22;;;2.55;;
39792;SDS011;26080;42.264;24.536;2024-01-16T06:13:54;3.50;;;2.47;;
39792;SDS011;26080;42.264;24.536;2024-01-16T06:16:23;9.48;;;2.85;;
39792;SDS011;26080;42.264;24.536;2024-01-16T06:18:48;10.50;;;3.15;;
39792;SDS011;26080;42.264;24.536;2024-01-16T06:21:13;8.68;;;4.72;;
39792;SDS011;26080;42.264;24.536;2024-01-16T06:23:39;17.50;;;7.10;;
39792;SDS011;26080;42.264;24.536;2024-01-16T06:26:07;12.32;;;7.55;;
39792;SDS011;26080;42.264;24.536;2024-01-16T06:28:33;6.90;;;3.58;;
39792;SDS011;26080;42.264;24.536;2024-01-16T06:30:58;10.27;;;3.88;;
39792;SDS011;26080;42.264;24.536;2024-01-16T06:33:24;5.22;;;2.45;;
39792;SDS011;26080;42.264;24.536;2024-01-16T06:35:50;4.32;;;2.90;;
39792;SDS011;26080;42.264;24.536;2024-01-16T06:38:16;3.05;;;1.75;;
39792;SDS011;26080;42.264;24.536;2024-01-16T06:40:41;6.18;;;3.08;;
39792;SDS011;26080;42.264;24.536;2024-01-16T06:43:07;4.43;;;2.67;;
39792;SDS011;26080;42.264;24.536;2024-01-16T06:45:32;9.77;;;3.85;;
39792;SDS011;26080;42.264;24.536;2024-01-16T06:47:58;4.78;;;3.53;;
39792;SDS011;26080;42.264;24.536;2024-01-16T06:50:23;16.23;;;6.72;;
39792;SDS011;26080;42.264;24.536;2024-01-16T06:52:49;5.55;;;2.72;;
39792;SDS011;26080;42.264;24.536;2024-01-16T06:55:14;4.82;;;2.83;;
39792;SDS011;26080;42.264;24.536;2024-01-16T06:57:40;4.07;;;2.22;;
39792;SDS011;26080;42.264;24.536;2024-01-16T07:00:05;3.67;;;1.88;;
39792;SDS011;26080;42.264;24.536;2024-01-16T07:02:32;9.63;;;2.65;;
39792;SDS011;26080;42.264;24.536;2024-01-16T07:04:58;3.80;;;2.67;;
39792;SDS011;26080;42.264;24.536;2024-01-16T07:07:24;4.82;;;2.53;;
39792;SDS011;26080;42.264;24.536;2024-01-16T07:09:49;3.55;;;1.95;;
39792;SDS011;26080;42.264;24.536;2024-01-16T07:12:15;1.75;;;1.27;;
39792;SDS011;26080;42.264;24.536;2024-01-16T07:14:40;1.85;;;1.33;;
39792;SDS011;26080;42.264;24.536;2024-01-16T07:17:06;2.38;;;1.70;;
39792;SDS011;26080;42.264;24.536;2024-01-16T07:19:32;3.47;;;1.77;;
39792;SDS011;26080;42.264;24.536;2024-01-16T07:21:58;2.53;;;1.20;;
39792;SDS011;26080;42.264;24.536;2024-01-16T07:24:23;2.45;;;1.80;;
39792;SDS011;26080;42.264;24.536;2024-01-16T07:26:49;2.30;;;1.60;;
39792;SDS011;26080;42.264;24.536;2024-01-16T07:29:15;2.35;;;1.38;;
39792;SDS011;26080;42.264;24.536;2024-01-16T07:31:40;3.15;;;2.13;;
39792;SDS011;26080;42.264;24.536;2024-01-16T07:34:06;4.68;;;1.88;;
39792;SDS011;26080;42.264;24.536;2024-01-16T07:36:32;2.55;;;1.58;;
39792;SDS011;26080;42.264;24.536;2024-01-16T07:38:57;2.90;;;1.60;;
39792;SDS011;26080;42.264;24.536;2024-01-16T07:41:22;1.88;;;1.13;;
39792;SDS011;26080;42.264;24.536;2024-01-16T07:43:48;4.30;;;2.20;;
39792;SDS011;26080;42.264;24.536;2024-01-16T07:46:13;3.35;;;1.77;;
39792;SDS011;26080;42.264;24.536;2024-01-16T07:48:39;3.13;;;2.03;;
39792;SDS011;26080;42.264;24.536;2024-01-16T07:51:04;7.45;;;2.25;;
39792;SDS011;26080;42.264;24.536;2024-01-16T07:53:30;3.60;;;1.70;;
39792;SDS011;26080;42.264;24.536;2024-01-16T07:55:56;4.97;;;2.95;;
39792;SDS011;26080;42.264;24.536;2024-01-16T07:58:22;3.63;;;2.50;;
39792;SDS011;26080;42.264;24.536;2024-01-16T08:00:50;5.15;;;2.92;;
39792;SDS011;26080;42.264;24.536;2024-01-16T08:03:18;5.82;;;3.05;;
39792;SDS011;26080;42.264;24.536;2024-01-16T08:05:44;5.68;;;3.08;;
39792;SDS011;26080;42.264;24.536;2024-01-16T08:08:09;9.50;;;5.53;;
39792;SDS011;26080;42.264;24.536;2024-01-16T08:10:35;2.92;;;1.92;;
39792;SDS011;26080;42.264;24.536;2024-01-16T08:13:01;5.88;;;2.50;;
39792;SDS011;26080;42.264;24.536;2024-01-16T08:15:29;5.35;;;2.55;;
39792;SDS011;26080;42.264;24.536;2024-01-16T08:17:54;7.85;;;3.80;;
39792;SDS011;26080;42.264;24.536;2024-01-16T08:20:20;7.75;;;2.90;;
39792;SDS011;26080;42.264;24.536;2024-01-16T08:22:45;2.53;;;1.58;;
39792;SDS011;26080;42.264;24.536;2024-01-16T08:25:11;4.07;;;1.60;;
39792;SDS011;26080;42.264;24.536;2024-01-16T08:27:36;2.83;;;1.55;;
39792;SDS011;26080;42.264;24.536;2024-01-16T08:30:02;6.75;;;2.17;;
39792;SDS011;26080;42.264;24.536;2024-01-16T08:32:30;4.20;;;1.85;;
39792;SDS011;26080;42.264;24.536;2024-01-16T08:34:56;3.83;;;1.98;;
39792;SDS011;26080;42.264;24.536;2024-01-16T08:37:22;4.05;;;2.22;;
39792;SDS011;26080;42.264;24.536;2024-01-16T08:39:47;2.30;;;0.98;;
39792;SDS011;26080;42.264;24.536;2024-01-16T08:42:13;1.65;;;1.17;;
39792;SDS011;26080;42.264;24.536;2024-01-16T08:44:38;2.03;;;1.27;;
39792;SDS011;26080;42.264;24.536;2024-01-16T08:47:04;2.25;;;1.33;;
39792;SDS011;26080;42.264;24.536;2024-01-16T08:49:31;1.55;;;1.13;;
39792;SDS011;26080;42.264;24.536;2024-01-16T08:51:57;3.53;;;1.42;;
39792;SDS011;26080;42.264;24.536;2024-01-16T08:54:23;3.30;;;1.10;;
39792;SDS011;26080;42.264;24.536;2024-01-16T08:56:50;1.23;;;0.88;;
39792;SDS011;26080;42.264;24.536;2024-01-16T08:59:16;5.22;;;2.72;;
39792;SDS011;26080;42.264;24.536;2024-01-16T09:01:41;1.52;;;0.63;;
39792;SDS011;26080;42.264;24.536;2024-01-16T09:04:07;5.15;;;1.65;;
39792;SDS011;26080;42.264;24.536;2024-01-16T09:06:32;1.95;;;1.30;;
39792;SDS011;26080;42.264;24.536;2024-01-16T09:08:58;3.03;;;1.58;;
39792;SDS011;26080;42.264;24.536;2024-01-16T09:11:23;3.25;;;1.45;;
39792;SDS011;26080;42.264;24.536;2024-01-16T09:13:48;2.38;;;1.55;;
39792;SDS011;26080;42.264;24.536;2024-01-16T09:16:14;1.80;;;1.13;;
39792;SDS011;26080;42.264;24.536;2024-01-16T09:18:40;1.02;;;0.88;;
39792;SDS011;26080;42.264;24.536;2024-01-16T09:21:05;0.60;;;0.55;;
39792;SDS011;26080;42.264;24.536;2024-01-16T09:23:31;1.20;;;0.70;;
39792;SDS011;26080;42.264;24.536;2024-01-16T09:25:56;0.40;;;0.40;;
39792;SDS011;26080;42.264;24.536;2024-01-16T09:28:22;1.40;;;0.73;;
39792;SDS011;26080;42.264;24.536;2024-01-16T09:30:47;1.27;;;0.63;;
39792;SDS011;26080;42.264;24.536;2024-01-16T09:33:13;0.47;;;0.40;;
39792;SDS011;26080;42.264;24.536;2024-01-16T09:35:38;2.95;;;1.15;;
39792;SDS011;26080;42.264;24.536;2024-01-16T09:38:04;1.80;;;0.90;;
39792;SDS011;26080;42.264;24.536;2024-01-16T09:40:32;2.10;;;1.25;;
39792;SDS011;26080;42.264;24.536;2024-01-16T09:42:58;1.50;;;1.08;;
39792;SDS011;26080;42.264;24.536;2024-01-16T09:48:05;1.23;;;0.40;;
39792;SDS011;26080;42.264;24.536;2024-01-16T09:50:33;1.92;;;1.23;;
39792;SDS011;26080;42.264;24.536;2024-01-16T09:52:58;3.22;;;1.25;;
39792;SDS011;26080;42.264;24.536;2024-01-16T09:55:24;2.05;;;1.27;;
39792;SDS011;26080;42.264;24.536;2024-01-16T09:57:53;3.47;;;1.60;;
39792;SDS011;26080;42.264;24.536;2024-01-16T10:00:18;6.10;;;2.42;;
39792;SDS011;26080;42.264;24.536;2024-01-16T10:02:44;9.60;;;1.42;;
39792;SDS011;26080;42.264;24.536;2024-01-16T10:05:10;1.05;;;0.63;;
39792;SDS011;26080;42.264;24.536;2024-01-16T10:07:40;2.53;;;0.80;;
39792;SDS011;26080;42.264;24.536;2024-01-16T10:10:09;1.92;;;1.30;;
39792;SDS011;26080;42.264;24.536;2024-01-16T10:12:38;1.48;;;0.80;;
39792;SDS011;26080;42.264;24.536;2024-01-16T10:15:07;1.80;;;0.80;;
39792;SDS011;26080;42.264;24.536;2024-01-16T10:17:40;2.58;;;1.88;;
39792;SDS011;26080;42.264;24.536;2024-01-16T10:22:38;0.82;;;0.52;;
39792;SDS011;26080;42.264;24.536;2024-01-16T10:27:30;1.05;;;0.68;;
39792;SDS011;26080;42.264;24.536;2024-01-16T10:29:57;1.95;;;1.05;;
39792;SDS011;26080;42.264;24.536;2024-01-16T10:32:29;4.03;;;1.05;;
39792;SDS011;26080;42.264;24.536;2024-01-16T10:35:05;1.23;;;0.73;;
39792;SDS011;26080;42.264;24.536;2024-01-16T10:40:14;6.25;;;2.30;;
39792;SDS011;26080;42.264;24.536;2024-01-16T10:42:45;1.95;;;1.23;;
39792;SDS011;26080;42.264;24.536;2024-01-16T10:45:17;2.15;;;1.08;;
39792;SDS011;26080;42.264;24.536;2024-01-16T10:50:12;1.50;;;0.95;;
39792;SDS011;26080;42.264;24.536;2024-01-16T10:52:47;2.22;;;0.85;;
39792;SDS011;26080;42.264;24.536;2024-01-16T10:55:19;1.17;;;0.40;;
39792;SDS011;26080;42.264;24.536;2024-01-16T10:57:47;0.45;;;0.30;;
39792;SDS011;26080;42.264;24.536;2024-01-16T11:00:17;2.20;;;0.60;;
39792;SDS011;26080;42.264;24.536;2024-01-16T11:03:05;17.38;;;1.05;;
39792;SDS011;26080;42.264;24.536;2024-01-16T11:05:31;1.38;;;0.60;;
39792;SDS011;26080;42.264;24.536;2024-01-16T11:08:00;0.95;;;0.88;;
39792;SDS011;26080;42.264;24.536;2024-01-16T11:10:27;0.85;;;0.47;;
39792;SDS011;26080;42.264;24.536;2024-01-16T11:12:52;1.08;;;0.40;;
39792;SDS011;26080;42.264;24.536;2024-01-16T11:15:19;1.17;;;0.60;;
39792;SDS011;26080;42.264;24.536;2024-01-16T11:17:45;2.70;;;0.95;;
39792;SDS011;26080;42.264;24.536;2024-01-16T11:20:11;1.67;;;0.50;;
39792;SDS011;26080;42.264;24.536;2024-01-16T11:22:39;2.15;;;0.75;;
39792;SDS011;26080;42.264;24.536;2024-01-16T11:27:39;0.93;;;0.65;;
39792;SDS011;26080;42.264;24.536;2024-01-16T11:30:07;2.55;;;1.17;;
39792;SDS011;26080;42.264;24.536;2024-01-16T11:32:35;3.17;;;1.33;;
39792;SDS011;26080;42.264;24.536;2024-01-16T11:35:05;2.30;;;0.98;;
39792;SDS011;26080;42.264;24.536;2024-01-16T11:37:31;1.13;;;0.68;;
39792;SDS011;26080;42.264;24.536;2024-01-16T11:42:42;1.63;;;0.50;;
39792;SDS011;26080;42.264;24.536;2024-01-16T11:45:54;0.30;;;0.30;;
39792;SDS011;26080;42.264;24.536;2024-01-16T11:50:52;2.22;;;1.55;;
39792;SDS011;26080;42.264;24.536;2024-01-16T12:02:09;4.53;;;0.90;;
39792;SDS011;26080;42.264;24.536;2024-01-16T12:04:39;2.80;;;1.33;;
39792;SDS011;26080;42.264;24.536;2024-01-16T12:07:04;0.43;;;0.28;;
39792;SDS011;26080;42.264;24.536;2024-01-16T12:09:30;1.15;;;0.73;;
39792;SDS011;26080;42.264;24.536;2024-01-16T12:11:56;1.65;;;0.68;;
39792;SDS011;26080;42.264;24.536;2024-01-16T12:19:49;1.08;;;0.52;;
39792;SDS011;26080;42.264;24.536;2024-01-16T12:22:15;0.28;;;0.20;;
39792;SDS011;26080;42.264;24.536;2024-01-16T12:24:43;1.67;;;0.52;;
39792;SDS011;26080;42.264;24.536;2024-01-16T12:27:10;2.08;;;1.13;;
39792;SDS011;26080;42.264;24.536;2024-01-16T12:29:36;0.45;;;0.45;;
39792;SDS011;26080;42.264;24.536;2024-01-16T12:32:05;1.00;;;0.57;;
39792;SDS011;26080;42.264;24.536;2024-01-16T12:34:34;3.30;;;1.00;;
39792;SDS011;26080;42.264;24.536;2024-01-16T12:39:34;2.13;;;1.38;;
39792;SDS011;26080;42.264;24.536;2024-01-16T12:42:00;3.72;;;0.73;;
39792;SDS011;26080;42.264;24.536;2024-01-16T12:44:26;3.13;;;1.35;;
39792;SDS011;26080;42.264;24.536;2024-01-16T12:46:56;4.88;;;1.15;;
39792;SDS011;26080;42.264;24.536;2024-01-16T12:49:25;4.78;;;1.48;;
39792;SDS011;26080;42.264;24.536;2024-01-16T12:51:50;12.38;;;1.63;;
39792;SDS011;26080;42.264;24.536;2024-01-16T12:54:17;23.10;;;3.03;;
39792;SDS011;26080;42.264;24.536;2024-01-16T12:56:43;7.43;;;2.20;;
39792;SDS011;26080;42.264;24.536;2024-01-16T12:59:13;1.90;;;1.08;;
39792;SDS011;26080;42.264;24.536;2024-01-16T13:01:39;15.40;;;4.82;;
39792;SDS011;26080;42.264;24.536;2024-01-16T13:04:10;8.15;;;2.45;;
39792;SDS011;26080;42.264;24.536;2024-01-16T13:06:37;2.65;;;0.70;;
39792;SDS011;26080;42.264;24.536;2024-01-16T13:09:09;2.85;;;0.73;;
39792;SDS011;26080;42.264;24.536;2024-01-16T13:11:49;0.50;;;0.30;;
39792;SDS011;26080;42.264;24.536;2024-01-16T13:14:23;1.38;;;0.20;;
39792;SDS011;26080;42.264;24.536;2024-01-16T13:16:50;0.20;;;0.20;;
39792;SDS011;26080;42.264;24.536;2024-01-16T13:19:19;1.40;;;0.38;;
39792;SDS011;26080;42.264;24.536;2024-01-16T13:21:44;0.50;;;0.32;;
39792;SDS011;26080;42.264;24.536;2024-01-16T13:24:11;0.65;;;0.50;;
39792;SDS011;26080;42.264;24.536;2024-01-16T13:26:37;0.20;;;0.15;;
39792;SDS011;26080;42.264;24.536;2024-01-16T13:29:03;0.32;;;0.30;;
39792;SDS011;26080;42.264;24.536;2024-01-16T13:31:29;0.90;;;0.63;;
39792;SDS011;26080;42.264;24.536;2024-01-16T13:33:54;3.40;;;0.80;;
39792;SDS011;26080;42.264;24.536;2024-01-16T13:36:21;1.40;;;0.50;;
39792;SDS011;26080;42.264;24.536;2024-01-16T13:38:48;2.70;;;0.88;;
39792;SDS011;26080;42.264;24.536;2024-01-16T13:41:14;1.48;;;0.68;;
39792;SDS011;26080;42.264;24.536;2024-01-16T13:43:40;0.98;;;0.50;;
39792;SDS011;26080;42.264;24.536;2024-01-16T13:46:05;0.30;;;0.20;;
39792;SDS011;26080;42.264;24.536;2024-01-16T13:48:33;1.10;;;0.50;;
39792;SDS011;26080;42.264;24.536;2024-01-16T13:50:58;0.50;;;0.45;;
39792;SDS011;26080;42.264;24.536;2024-01-16T13:53:24;0.60;;;0.32;;
39792;SDS011;26080;42.264;24.536;2024-01-16T13:55:49;0.45;;;0.25;;
39792;SDS011;26080;42.264;24.536;2024-01-16T13:58:15;0.57;;;0.38;;
39792;SDS011;26080;42.264;24.536;2024-01-16T14:00:40;3.70;;;0.50;;
39792;SDS011;26080;42.264;24.536;2024-01-16T14:05:50;0.28;;;0.28;;
39792;SDS011;26080;42.264;24.536;2024-01-16T14:08:16;0.47;;;0.30;;
39792;SDS011;26080;42.264;24.536;2024-01-16T14:10:41;2.80;;;0.70;;
39792;SDS011;26080;42.264;24.536;2024-01-16T14:13:06;0.75;;;0.68;;
39792;SDS011;26080;42.264;24.536;2024-01-16T14:15:32;1.65;;;0.57;;
39792;SDS011;26080;42.264;24.536;2024-01-16T14:17:57;1.33;;;0.57;;
39792;SDS011;26080;42.264;24.536;2024-01-16T14:20:24;2.70;;;0.88;;
39792;SDS011;26080;42.264;24.536;2024-01-16T14:22:51;1.23;;;0.73;;
39792;SDS011;26080;42.264;24.536;2024-01-16T14:25:20;1.45;;;0.65;;
39792;SDS011;26080;42.264;24.536;2024-01-16T14:27:56;5.47;;;1.10;;
39792;SDS011;26080;42.264;24.536;2024-01-16T14:30:23;5.15;;;1.52;;
39792;SDS011;26080;42.264;24.536;2024-01-16T14:32:50;7.50;;;1.85;;
39792;SDS011;26080;42.264;24.536;2024-01-16T14:35:16;2.10;;;1.40;;
39792;SDS011;26080;42.264;24.536;2024-01-16T14:37:42;1.42;;;0.98;;
39792;SDS011;26080;42.264;24.536;2024-01-16T14:40:08;2.03;;;0.73;;
39792;SDS011;26080;42.264;24.536;2024-01-16T14:42:50;2.97;;;0.63;;
39792;SDS011;26080;42.264;24.536;2024-01-16T14:45:18;9.73;;;3.95;;
39792;SDS011;26080;42.264;24.536;2024-01-16T14:47:46;9.18;;;4.57;;
39792;SDS011;26080;42.264;24.536;2024-01-16T14:50:11;10.25;;;4.38;;
39792;SDS011;26080;42.264;24.536;2024-01-16T14:52:38;7.57;;;3.47;;
39792;SDS011;26080;42.264;24.536;2024-01-16T14:55:04;3.33;;;1.58;;
39792;SDS011;26080;42.264;24.536;2024-01-16T14:57:32;4.00;;;2.00;;
39792;SDS011;26080;42.264;24.536;2024-01-16T15:00:05;2.08;;;1.30;;
39792;SDS011;26080;42.264;24.536;2024-01-16T15:02:39;1.02;;;0.73;;
39792;SDS011;26080;42.264;24.536;2024-01-16T15:05:04;2.45;;;0.88;;
39792;SDS011;26080;42.264;24.536;2024-01-16T15:07:31;3.33;;;1.73;;